Time;durP1;ratioP1;P1;durP2;ratioP2;P2;SDS_P1;SDS_P2;PMS_P1;PMS_P2;Temp;Humidity;BMP_temperature;BMP_pressure;BME280_temperature;BME280_humidity;BME280_pressure;Samples;Min_cycle;Max_cycle;Signal;HPM_P1;HPM_P2
2023/10/01 00:02:18;;;;;;;0.10;0.10;;;;;;;18.11;63.84;102428.97;5086225;28;20051;-81
2023/10/01 00:04:44;;;;;;;0.10;0.10;;;;;;;18.19;63.62;102422.53;5092758;28;20062;-80
2023/10/01 00:07:11;;;;;;;1.30;1.30;;;;;;;18.19;63.66;102422.53;5094229;28;20105;-81
2023/10/01 00:09:37;;;;;;;0.10;0.10;;;;;;;18.16;63.79;102419.94;5084180;28;20034;-80
2023/10/01 00:12:04;;;;;;;0.30;0.30;;;;;;;18.17;63.70;102414.53;5094749;28;20032;-81
2023/10/01 00:14:30;;;;;;;0.00;0.00;;;;;;;18.17;63.57;102405.56;5094294;28;20519;-79
2023/10/01 00:16:56;;;;;;;0.10;0.10;;;;;;;18.16;63.74;102417.25;5091652;28;20085;-80
2023/10/01 00:19:23;;;;;;;0.20;0.20;;;;;;;18.17;63.59;102410.94;5091240;28;20038;-81
2023/10/01 00:21:49;;;;;;;2.85;0.65;;;;;;;18.17;63.54;102410.94;5092051;28;20028;-80
2023/10/01 00:24:15;;;;;;;0.10;0.10;;;;;;;18.20;63.11;102411.75;5089812;28;20110;-81
2023/10/01 00:26:42;;;;;;;1.02;1.02;;;;;;;18.15;63.23;102416.34;5078087;28;20490;-81
2023/10/01 00:29:09;;;;;;;0.10;0.10;;;;;;;18.10;63.54;102419.16;5079459;28;20078;-81
2023/10/01 00:31:36;;;;;;;0.10;0.10;;;;;;;18.09;63.37;102419.19;5075285;28;20096;-80
2023/10/01 00:34:03;;;;;;;0.10;0.10;;;;;;;18.07;63.44;102419.25;5088406;28;20039;-81
2023/10/01 00:36:30;;;;;;;0.10;0.10;;;;;;;18.09;63.33;102409.38;5076362;28;20021;-80
2023/10/01 00:38:56;;;;;;;0.08;0.08;;;;;;;18.09;63.14;102420.09;5087132;28;20032;-80
2023/10/01 00:41:22;;;;;;;0.10;0.10;;;;;;;18.08;62.94;102410.28;5075935;28;20576;-81
2023/10/01 00:43:48;;;;;;;0.05;0.05;;;;;;;18.04;63.22;102415.78;5081893;28;20119;-81
2023/10/01 00:46:14;;;;;;;0.00;0.00;;;;;;;18.05;63.15;102404.13;5080852;28;20036;-81
2023/10/01 00:48:42;;;;;;;0.30;0.30;;;;;;;18.05;63.11;102410.34;5084743;28;20114;-80
2023/10/01 00:51:08;;;;;;;0.10;0.10;;;;;;;18.06;63.02;102405.88;5077759;28;20106;-79
2023/10/01 00:53:34;;;;;;;0.10;0.10;;;;;;;18.06;63.17;102401.38;5081978;28;20047;-81
2023/10/01 00:56:01;;;;;;;0.30;0.30;;;;;;;18.02;62.92;102402.41;5074854;28;20479;-80
2023/10/01 00:58:27;;;;;;;0.10;0.10;;;;;;;18.02;63.06;102394.34;5079591;28;20028;-79
2023/10/01 01:00:54;;;;;;;0.20;0.20;;;;;;;18.02;63.01;102397.03;5085954;28;20043;-80
2023/10/01 01:03:22;;;;;;;0.20;0.20;;;;;;;18.02;63.08;102402.41;5091030;28;20093;-81
2023/10/01 01:06:23;;;;;;;0.47;0.47;;;;;;;18.01;63.30;102397.97;5083823;28;20510;-81
2023/10/01 01:08:46;;;;;;;0.10;0.10;;;;;;;18.07;62.95;102392.44;5080237;28;20479;-81
2023/10/01 01:11:17;;;;;;;0.00;0.00;;;;;;;18.05;62.98;102390.72;5096208;28;20461;-81
2023/10/01 01:13:44;;;;;;;0.10;0.10;;;;;;;18.03;63.13;102385.41;5084363;28;20024;-81
2023/10/01 01:16:12;;;;;;;1.02;1.00;;;;;;;18.02;63.10;102385.41;5075800;28;20156;-80
2023/10/01 01:18:42;;;;;;;0.52;0.52;;;;;;;17.98;63.11;102389.09;5084861;28;20031;-81
2023/10/01 01:21:10;;;;;;;0.00;0.00;;;;;;;17.96;63.12;102375.75;5087217;28;20025;-81
2023/10/01 01:23:36;;;;;;;0.20;0.20;;;;;;;17.88;63.12;102370.56;5081274;28;20549;-81
2023/10/01 01:26:03;;;;;;;0.50;0.50;;;;;;;17.83;62.81;102371.59;5078879;28;20032;-80
2023/10/01 01:28:30;;;;;;;0.20;0.20;;;;;;;17.70;62.72;102377.25;5077915;28;20404;-80
2023/10/01 01:30:59;;;;;;;0.13;0.13;;;;;;;17.66;62.45;102372.91;5078824;28;20119;-81
2023/10/01 01:33:31;;;;;;;4.97;0.75;;;;;;;17.67;62.45;102363.97;5085420;28;20040;-81
2023/10/01 01:35:58;;;;;;;0.08;0.08;;;;;;;17.69;62.45;102375.50;5085783;28;20059;-81
2023/10/01 01:38:24;;;;;;;0.10;0.10;;;;;;;17.63;62.53;102381.91;5095625;28;20032;-80
2023/10/01 01:40:52;;;;;;;0.00;0.00;;;;;;;17.64;62.47;102374.75;5097489;28;20103;-80
2023/10/01 01:43:22;;;;;;;0.10;0.10;;;;;;;17.65;62.58;102367.59;5077320;28;20025;-79
2023/10/01 01:45:55;;;;;;;0.10;0.10;;;;;;;17.60;62.50;102373.94;5087194;28;20450;-81
2023/10/01 01:48:26;;;;;;;0.93;0.77;;;;;;;17.56;62.64;102366.91;5075128;28;20032;-80
2023/10/01 01:50:54;;;;;;;1.05;1.05;;;;;;;17.59;62.50;102363.25;5089679;28;20055;-80
2023/10/01 01:53:21;;;;;;;0.00;0.00;;;;;;;17.59;62.45;102363.25;5088341;28;20089;-80
2023/10/01 01:55:48;;;;;;;0.65;0.45;;;;;;;17.62;62.54;102356.03;5077631;28;20028;-81
2023/10/01 01:58:23;;;;;;;0.10;0.10;;;;;;;17.50;62.65;102339.38;5080123;28;20036;-80
2023/10/01 02:01:23;;;;;;;17.25;0.65;;;;;;;17.60;62.58;102357.00;5078558;28;20028;-81
2023/10/01 02:03:37;;;;;;;0.10;0.10;;;;;;;17.59;62.34;102347.19;5069256;28;20093;-81
2023/10/01 02:06:06;;;;;;;0.10;0.10;;;;;;;17.58;62.45;102354.34;5080789;28;20048;-80
2023/10/01 02:08:35;;;;;;;0.03;0.03;;;;;;;17.63;62.40;102352.44;5088982;28;20103;-81
2023/10/01 02:11:04;;;;;;;0.10;0.10;;;;;;;17.64;62.62;102358.66;5081489;28;20399;-80
2023/10/01 02:13:32;;;;;;;0.10;0.10;;;;;;;17.59;62.41;102357.91;5082644;28;20029;-80
2023/10/01 02:16:18;;;;;;;0.20;0.20;;;;;;;17.63;62.13;102354.22;5074059;28;20107;-81
2023/10/01 02:18:55;;;;;;;0.10;0.10;;;;;;;17.60;62.15;102357.00;5070201;28;20063;-81
2023/10/01 02:21:42;;;;;;;0.08;0.08;;;;;;;17.66;62.04;102354.16;5075046;28;20093;-81
2023/10/01 02:24:12;;;;;;;0.10;0.10;;;;;;;17.59;62.13;102355.22;5094600;28;20078;-81
2023/10/01 02:26:41;;;;;;;1.55;1.45;;;;;;;17.69;61.99;102356.72;5089331;28;20058;-81
2023/10/01 02:29:12;;;;;;;0.80;0.80;;;;;;;17.66;61.85;102351.47;5080908;28;20025;-80
2023/10/01 02:31:39;;;;;;;14.45;1.15;;;;;;;17.68;62.38;102360.34;5073547;28;20025;-81
2023/10/01 02:34:08;;;;;;;0.10;0.10;;;;;;;17.72;61.96;102356.69;5095066;28;20036;-79
2023/10/01 02:36:36;;;;;;;0.00;0.00;;;;;;;17.73;61.44;102358.44;5088256;28;20031;-81
2023/10/01 02:39:11;;;;;;;0.10;0.10;;;;;;;17.70;61.74;102347.78;5078906;28;20098;-81
2023/10/01 02:41:40;;;;;;;0.20;0.20;;;;;;;17.76;61.84;102347.63;5070945;28;20031;-81
2023/10/01 02:44:11;;;;;;;0.98;0.73;;;;;;;17.77;61.99;102349.38;5095957;28;20028;-81
2023/10/01 02:46:37;;;;;;;0.10;0.10;;;;;;;17.75;62.10;102345.00;5087721;28;20091;-80
2023/10/01 02:49:05;;;;;;;1.33;1.23;;;;;;;17.76;61.94;102342.25;5081009;28;20033;-81
2023/10/01 02:51:32;;;;;;;0.10;0.10;;;;;;;17.73;61.91;102339.69;5081803;28;20020;-80
2023/10/01 02:54:06;;;;;;;0.98;0.95;;;;;;;17.78;61.80;102351.16;5087972;28;20044;-81
2023/10/01 02:56:33;;;;;;;0.95;0.77;;;;;;;17.75;61.83;102345.84;5078371;28;20042;-81
2023/10/01 02:59:11;;;;;;;1.63;0.93;;;;;;;17.76;62.07;102344.94;5078372;28;20419;-79
2023/10/01 03:01:38;;;;;;;2.13;1.38;;;;;;;17.72;62.09;102340.59;5079462;28;20025;-80
2023/10/01 03:04:10;;;;;;;0.10;0.10;;;;;;;17.72;62.01;102345.94;5073879;28;20028;-80
2023/10/01 03:06:47;;;;;;;0.20;0.20;;;;;;;17.72;62.04;102345.94;5074537;28;20135;-80
2023/10/01 03:09:22;;;;;;;0.10;0.10;;;;;;;17.76;62.02;102344.94;5079844;28;20042;-80
2023/10/01 03:11:53;;;;;;;0.10;0.10;;;;;;;17.82;61.67;102340.34;5089511;28;20169;-80
2023/10/01 03:14:25;;;;;;;0.10;0.10;;;;;;;17.85;62.00;102341.13;5085458;28;20033;-80
2023/10/01 03:16:54;;;;;;;0.10;0.10;;;;;;;17.78;62.08;102334.16;5074867;28;20033;-79
2023/10/01 03:19:25;;;;;;;0.00;0.00;;;;;;;17.90;61.91;102328.47;5072158;28;20090;-81
2023/10/01 03:22:15;;;;;;;0.17;0.17;;;;;;;17.91;61.90;102332.06;5077049;28;20530;-80
2023/10/01 03:24:45;;;;;;;0.10;0.10;;;;;;;17.86;61.96;102337.53;5078935;28;20126;-80
2023/10/01 03:27:20;;;;;;;0.27;0.27;;;;;;;17.86;61.95;102332.19;5078741;28;20436;-80
2023/10/01 03:29:49;;;;;;;0.22;0.22;;;;;;;17.85;62.30;102337.59;5070378;28;20020;-80
2023/10/01 03:32:32;;;;;;;0.10;0.10;;;;;;;17.83;62.10;102337.63;5077994;28;20032;-80
2023/10/01 03:35:07;;;;;;;0.00;0.00;;;;;;;17.88;61.92;102333.03;5064896;28;20115;-81
2023/10/01 03:37:43;;;;;;;0.10;0.10;;;;;;;17.80;61.81;102337.69;5086934;28;20032;-81
2023/10/01 03:40:27;;;;;;;0.20;0.20;;;;;;;17.79;62.11;102322.53;5075758;28;20028;-79
2023/10/01 03:42:53;;;;;;;0.05;0.05;;;;;;;17.85;62.15;102326.88;5078945;28;20051;-81
2023/10/01 03:45:37;;;;;;;3.00;1.05;;;;;;;17.83;62.01;102321.56;5084448;28;20039;-80
2023/10/01 03:48:06;;;;;;;0.20;0.20;;;;;;;17.81;62.01;102328.75;5082526;28;20028;-80
2023/10/01 03:50:35;;;;;;;0.60;0.60;;;;;;;17.71;62.21;102322.75;5080983;28;20075;-79
2023/10/01 03:53:10;;;;;;;0.10;0.10;;;;;;;17.77;62.23;102322.56;5072593;28;20056;-79
2023/10/01 03:55:39;;;;;;;0.32;0.32;;;;;;;17.74;62.31;102322.66;5091925;28;20445;-80
2023/10/01 03:58:08;;;;;;;0.00;0.00;;;;;;;17.77;62.47;102322.56;5091331;28;20571;-79
2023/10/01 04:03:15;;;;;;;0.10;0.10;;;;;;;17.71;62.52;102316.50;5090114;27;20371;-79
2023/10/01 04:05:45;;;;;;;0.10;0.10;;;;;;;17.75;62.74;102324.41;5085846;28;20036;-80
2023/10/01 04:08:12;;;;;;;2.05;1.75;;;;;;;17.73;62.70;102323.59;5080105;28;20029;-79
2023/10/01 04:10:41;;;;;;;0.30;0.30;;;;;;;17.74;63.04;102319.09;5088477;28;20516;-79
2023/10/01 04:13:24;;;;;;;0.10;0.10;;;;;;;17.76;62.94;102315.44;5077210;28;20029;-79
2023/10/01 04:16:05;;;;;;;0.60;0.43;;;;;;;17.76;63.04;102315.44;5065108;28;20024;-81
2023/10/01 04:18:33;;;;;;;0.20;0.20;;;;;;;17.81;62.94;102317.13;5081379;28;20024;-81
2023/10/01 04:23:41;;;;;;;0.10;0.10;;;;;;;17.78;63.10;102318.09;5071956;28;20358;-81
2023/10/01 04:26:13;;;;;;;0.93;0.90;;;;;;;17.82;63.02;102324.25;5055142;28;20025;-80
2023/10/01 04:28:46;;;;;;;3.00;1.55;;;;;;;17.82;63.19;102316.19;5052143;28;20079;-81
2023/10/01 04:31:16;;;;;;;0.30;0.30;;;;;;;17.76;63.26;102317.25;5051921;28;20357;-81
2023/10/01 04:33:45;;;;;;;0.20;0.20;;;;;;;17.81;63.13;102318.03;5062466;28;20124;-81
2023/10/01 04:36:16;;;;;;;0.10;0.10;;;;;;;17.83;63.18;102317.97;5057664;28;20035;-81
2023/10/01 04:38:43;;;;;;;0.20;0.20;;;;;;;17.86;63.20;102320.59;5052870;28;20041;-81
2023/10/01 04:41:16;;;;;;;0.80;0.80;;;;;;;17.91;63.04;102326.69;5060296;28;20028;-81
2023/10/01 04:43:51;;;;;;;0.57;0.57;;;;;;;17.82;63.34;102318.88;5061845;28;20771;-81
2023/10/01 04:46:20;;;;;;;0.10;0.10;;;;;;;17.71;63.83;102317.38;5061203;28;20035;-80
2023/10/01 04:48:47;;;;;;;0.10;0.10;;;;;;;17.77;63.79;102327.94;5058709;28;20025;-80
2023/10/01 04:51:13;;;;;;;0.00;0.00;;;;;;;17.79;63.51;102327.91;5060947;28;20037;-80
2023/10/01 04:53:46;;;;;;;0.17;0.17;;;;;;;17.81;63.84;102322.47;5071509;28;20029;-80
2023/10/01 04:56:20;;;;;;;0.88;0.82;;;;;;;17.77;63.72;102321.72;5058927;28;20025;-81
2023/10/01 04:58:51;;;;;;;0.28;0.28;;;;;;;17.81;63.51;102314.44;5060659;28;20055;-81
2023/10/01 05:01:23;;;;;;;0.10;0.10;;;;;;;17.78;63.75;102335.06;5056665;28;20060;-81
2023/10/01 05:03:50;;;;;;;;;;;;;;;17.94;63.21;102330.22;5059482;28;20784;-81
2023/10/01 05:06:19;;;;;;;0.10;0.10;;;;;;;17.73;63.90;102322.69;5050495;28;19926;-81
2023/10/01 05:08:49;;;;;;;0.85;0.80;;;;;;;17.78;63.81;102324.34;5051437;28;20091;-81
2023/10/01 05:11:21;;;;;;;0.00;0.00;;;;;;;17.71;63.94;102320.06;5064502;28;20072;-80
2023/10/01 05:13:51;;;;;;;0.20;0.20;;;;;;;17.72;63.82;102323.59;5059098;28;20115;-81
2023/10/01 05:16:18;;;;;;;3.63;1.88;;;;;;;17.77;63.78;102317.22;5046127;28;20036;-79
2023/10/01 05:18:45;;;;;;;0.10;0.10;;;;;;;17.79;63.67;102328.78;5066685;28;20057;-81
2023/10/01 05:21:12;;;;;;;0.10;0.10;;;;;;;17.73;63.79;102325.38;5055324;28;20112;-81
2023/10/01 05:23:39;;;;;;;0.47;0.47;;;;;;;17.70;63.77;102328.16;5067957;28;20028;-81
2023/10/01 05:26:08;;;;;;;1.55;0.85;;;;;;;17.60;64.02;102324.81;5067326;28;20032;-81
2023/10/01 05:28:36;;;;;;;0.10;0.10;;;;;;;17.60;64.05;102333.72;5054824;28;20033;-80
2023/10/01 05:31:06;;;;;;;4.20;0.98;;;;;;;17.71;63.80;102333.47;5063301;28;20040;-79
2023/10/01 05:33:33;;;;;;;0.10;0.10;;;;;;;17.75;63.57;102334.25;5070875;28;20029;-79
2023/10/01 05:36:04;;;;;;;0.10;0.10;;;;;;;17.66;63.59;102334.50;5046059;28;20523;-81
2023/10/01 05:38:35;;;;;;;0.30;0.30;;;;;;;17.56;63.85;102344.59;5046551;28;20037;-81
2023/10/01 05:41:09;;;;;;;0.40;0.40;;;;;;;17.57;63.77;102340.97;5037550;28;20056;-79
2023/10/01 05:43:37;;;;;;;0.15;0.15;;;;;;;17.45;64.12;102331.47;5046158;28;20108;-81
2023/10/01 05:46:12;;;;;;;0.20;0.20;;;;;;;17.42;64.11;102340.47;5048213;28;20040;-81
2023/10/01 05:48:40;;;;;;;0.10;0.10;;;;;;;17.43;64.30;102349.34;5046809;28;20044;-81
2023/10/01 05:51:15;;;;;;;1.27;1.23;;;;;;;17.43;64.25;102333.28;5046218;28;20029;-81
2023/10/01 05:53:41;;;;;;;0.98;0.98;;;;;;;17.36;64.38;102340.59;5056810;28;20424;-81
2023/10/01 05:56:10;;;;;;;0.10;0.10;;;;;;;17.39;64.25;102343.19;5043921;28;20527;-81
2023/10/01 05:58:38;;;;;;;0.10;0.10;;;;;;;17.46;63.96;102347.50;5041852;28;20025;-80
2023/10/01 06:01:05;;;;;;;0.10;0.10;;;;;;;17.43;63.82;102350.25;5040641;28;20441;-81
2023/10/01 06:03:33;;;;;;;0.70;0.70;;;;;;;17.40;64.10;102344.97;5044717;28;20059;-80
2023/10/01 06:06:24;;;;;;;0.10;0.10;;;;;;;17.42;64.23;102345.81;5047880;28;20036;-81
2023/10/01 06:08:49;;;;;;;0.60;0.60;;;;;;;17.39;64.06;102343.19;5042387;28;20412;-80
2023/10/01 06:11:16;;;;;;;0.30;0.30;;;;;;;17.46;63.74;102344.81;5038986;28;20420;-81
2023/10/01 06:13:49;;;;;;;0.63;0.35;;;;;;;17.43;64.27;102352.03;5054148;28;20021;-80
2023/10/01 06:16:22;;;;;;;0.20;0.20;;;;;;;17.36;64.41;102351.31;5046841;28;20022;-81
2023/10/01 06:18:51;;;;;;;0.10;0.10;;;;;;;17.43;64.36;102333.28;5039508;28;20029;-79
2023/10/01 06:21:23;;;;;;;3.47;0.77;;;;;;;17.43;64.33;102333.28;5039677;28;20127;-80
2023/10/01 06:23:51;;;;;;;0.22;0.22;;;;;;;17.40;64.12;102347.63;5039950;28;20080;-81
2023/10/01 06:26:19;;;;;;;0.10;0.10;;;;;;;17.36;64.36;102342.38;5041980;28;20033;-81
2023/10/01 06:28:47;;;;;;;0.10;0.10;;;;;;;17.28;64.84;102340.81;5053770;28;20124;-81
2023/10/01 06:31:16;;;;;;;0.10;0.10;;;;;;;17.24;64.89;102346.25;5042019;28;20032;-81
2023/10/01 06:33:44;;;;;;;0.10;0.10;;;;;;;17.19;65.26;102349.03;5046244;28;20025;-81
2023/10/01 06:36:21;;;;;;;0.17;0.17;;;;;;;17.07;65.67;102352.91;5049724;28;20099;-80
2023/10/01 06:38:48;;;;;;;0.57;0.57;;;;;;;17.06;64.93;102351.13;5050351;28;20034;-80
2023/10/01 06:41:18;;;;;;;0.10;0.10;;;;;;;17.02;65.74;102344.06;5053318;28;20722;-81
2023/10/01 06:43:54;;;;;;;0.75;0.75;;;;;;;16.98;66.05;102337.94;5055620;28;20128;-81
2023/10/01 06:48:58;;;;;;;0.30;0.30;;;;;;;16.96;66.46;102338.88;5111787;27;20388;-81
2023/10/01 06:51:26;;;;;;;0.50;0.50;;;;;;;16.99;66.31;102330.78;5095184;28;20036;-81
2023/10/01 06:53:59;;;;;;;0.40;0.40;;;;;;;17.05;66.43;102332.44;5092613;28;20024;-81
2023/10/01 06:56:30;;;;;;;0.75;0.70;;;;;;;17.09;66.05;102332.31;5091391;28;20124;-80
2023/10/01 06:59:12;;;;;;;0.10;0.10;;;;;;;17.10;66.84;102339.44;5091960;28;20050;-81
2023/10/01 07:01:42;;;;;;;0.10;0.10;;;;;;;17.13;66.89;102331.34;5096298;28;20115;-81
2023/10/01 07:04:09;;;;;;;0.10;0.10;;;;;;;17.15;66.89;102339.31;5091886;28;20043;-81
2023/10/01 07:06:36;;;;;;;2.85;1.90;;;;;;;17.16;66.80;102340.19;5090373;28;20069;-81
2023/10/01 07:09:06;;;;;;;0.30;0.30;;;;;;;17.13;67.05;102342.03;5094772;28;20032;-80
2023/10/01 07:11:33;;;;;;;1.00;0.82;;;;;;;17.18;66.84;102344.59;5094284;28;20108;-80
2023/10/01 07:14:02;;;;;;;0.20;0.20;;;;;;;17.21;67.19;102346.31;5102475;28;20036;-80
2023/10/01 07:16:35;;;;;;;1.08;1.08;;;;;;;17.27;66.61;102347.06;5083677;28;20028;-81
2023/10/01 07:19:04;;;;;;;0.10;0.10;;;;;;;17.33;66.43;102337.13;5091863;28;20051;-80
2023/10/01 07:21:33;;;;;;;0.20;0.20;;;;;;;17.34;66.60;102338.88;5093258;28;20087;-81
2023/10/01 07:24:00;;;;;;;0.20;0.20;;;;;;;17.43;66.34;102344.91;5090248;28;20043;-81
2023/10/01 07:26:28;;;;;;;0.47;0.47;;;;;;;17.45;66.73;102359.13;5094247;28;20499;-81
2023/10/01 07:28:56;;;;;;;1.27;1.23;;;;;;;17.50;66.57;102358.16;5090356;28;20031;-81
2023/10/01 07:31:24;;;;;;;0.30;0.30;;;;;;;17.58;66.54;102359.72;5091018;28;20033;-81
2023/10/01 07:33:53;;;;;;;0.73;0.73;;;;;;;17.56;66.85;102356.19;5090818;28;20403;-81
2023/10/01 07:36:20;;;;;;;3.55;0.93;;;;;;;17.56;66.74;102366.91;5091546;28;20024;-79
2023/10/01 07:38:48;;;;;;;0.15;0.15;;;;;;;17.68;66.25;102364.81;5094544;28;20040;-80
2023/10/01 07:41:16;;;;;;;0.20;0.20;;;;;;;17.68;65.90;102365.69;5091006;28;20059;-81
2023/10/01 07:43:42;;;;;;;2.63;1.02;;;;;;;17.69;65.90;102361.22;5090357;28;20020;-81
2023/10/01 07:46:09;;;;;;;4.35;1.25;;;;;;;17.71;65.87;102365.63;5090273;28;20028;-81
2023/10/01 07:48:37;;;;;;;1.85;1.75;;;;;;;17.81;65.56;102366.28;5090500;28;20052;-81
2023/10/01 07:51:03;;;;;;;0.10;0.10;;;;;;;17.89;65.30;102360.72;5090057;28;20054;-80
2023/10/01 07:53:33;;;;;;;0.43;0.43;;;;;;;17.97;65.54;102360.53;5090122;28;20039;-81
2023/10/01 07:56:02;;;;;;;0.43;0.43;;;;;;;18.01;65.33;102363.09;5089947;28;20025;-80
2023/10/01 08:01:59;;;;;;;0.10;0.10;;;;;;;18.26;65.29;102357.06;5076955;28;20036;-81
2023/10/01 08:04:06;;;;;;;0.10;0.10;;;;;;;18.32;65.25;102351.50;5076474;28;20123;-81
2023/10/01 08:06:42;;;;;;;0.15;0.15;;;;;;;18.43;64.92;102364.63;5075867;28;20029;-81
2023/10/01 08:09:13;;;;;;;4.20;1.35;;;;;;;18.49;64.31;102358.19;5094137;28;20051;-80
2023/10/01 08:11:58;;;;;;;0.50;0.50;;;;;;;18.62;64.37;102359.59;5080747;28;20064;-81
2023/10/01 08:14:26;;;;;;;0.32;0.32;;;;;;;18.92;63.85;102356.94;5077009;28;20713;-81
2023/10/01 08:16:56;;;;;;;2.10;1.45;;;;;;;18.87;63.13;102362.41;5075350;28;20024;-78
2023/10/01 08:19:22;;;;;;;0.52;0.52;;;;;;;19.01;63.12;102356.63;5076252;28;20063;-80
2023/10/01 08:21:50;;;;;;;0.85;0.85;;;;;;;19.20;62.72;102358.75;5076328;28;20067;-81
2023/10/01 08:24:18;;;;;;;0.52;0.52;;;;;;;19.26;62.63;102349.63;5073851;28;20107;-81
2023/10/01 08:29:59;;;;;;;0.20;0.20;;;;;;;19.56;62.33;102353.09;5090392;28;20037;-79
2023/10/01 08:32:22;;;;;;;0.30;0.30;;;;;;;19.73;61.52;102344.44;5084883;28;20043;-81
2023/10/01 08:37:37;;;;;;;2.10;0.90;;;;;;;19.88;61.37;102353.81;5080101;28;20068;-81
2023/10/01 08:40:14;;;;;;;0.10;0.10;;;;;;;19.89;61.24;102355.59;5077870;28;20024;-81
2023/10/01 08:42:44;;;;;;;0.70;0.65;;;;;;;19.85;61.56;102360.19;5077757;28;20066;-81
2023/10/01 08:45:12;;;;;;;0.40;0.40;;;;;;;19.91;61.73;102358.22;5080126;28;20093;-83
2023/10/01 08:47:38;;;;;;;0.43;0.43;;;;;;;19.96;61.62;102357.13;5087898;28;20029;-83
2023/10/01 08:50:40;;;;;;;0.20;0.20;;;;;;;20.02;61.47;102351.50;5079599;28;20039;-81
2023/10/01 08:52:55;;;;;;;0.32;0.32;;;;;;;20.02;61.52;102351.50;5082987;28;20475;-80
2023/10/01 08:58:13;;;;;;;0.17;0.17;;;;;;;20.11;61.90;102350.31;5117598;27;20363;-81
2023/10/01 09:00:48;;;;;;;0.32;0.32;;;;;;;20.14;61.17;102355.56;5094239;28;20103;-83
2023/10/01 09:03:26;;;;;;;0.10;0.10;;;;;;;20.00;61.30;102358.78;5093516;28;20086;-83
2023/10/01 09:06:01;;;;;;;0.10;0.10;;;;;;;20.19;61.60;102358.09;5092466;28;20033;-83
2023/10/01 09:08:31;;;;;;;1.00;0.73;;;;;;;20.25;61.73;102365.97;5092273;28;20032;-81
2023/10/01 09:11:10;;;;;;;1.33;1.25;;;;;;;20.31;61.47;102363.03;5078460;28;20437;-81
2023/10/01 09:16:30;;;;;;;0.65;0.65;;;;;;;20.46;61.23;102349.94;5112119;27;21050;-81
2023/10/01 09:19:03;;;;;;;1.00;1.00;;;;;;;20.63;61.23;102358.25;5107635;28;20521;-81
2023/10/01 09:21:38;;;;;;;1.38;1.27;;;;;;;20.73;60.89;102347.16;5104661;28;20028;-80
2023/10/01 09:24:33;;;;;;;0.10;0.10;;;;;;;20.84;60.64;102355.69;5105348;28;20031;-81
2023/10/01 09:26:55;;;;;;;1.15;1.15;;;;;;;21.02;60.41;102351.38;5093981;28;20054;-81
2023/10/01 09:29:24;;;;;;;16.55;2.97;;;;;;;21.06;59.78;102354.81;5097750;28;20028;-80
2023/10/01 09:31:58;;;;;;;0.40;0.40;;;;;;;21.19;59.41;102352.53;5098463;28;20028;-81
2023/10/01 09:34:31;;;;;;;0.20;0.20;;;;;;;21.26;58.71;102356.72;5103130;28;20111;-80
2023/10/01 09:37:52;;;;;;;1.23;1.17;;;;;;;21.19;58.77;102347.16;5099163;28;20027;-81
2023/10/01 09:40:04;;;;;;;;;;;;;;;21.48;58.87;102351.31;5106720;28;20726;-80
2023/10/01 09:42:44;;;;;;;0.10;0.10;;;;;;;21.43;58.26;102347.94;5096132;28;19912;-80
2023/10/01 09:45:26;;;;;;;0.38;0.38;;;;;;;21.54;58.63;102342.97;5101925;28;20068;-77
2023/10/01 09:48:07;;;;;;;0.52;0.52;;;;;;;21.68;57.63;102346.91;5092326;28;20029;-80
2023/10/01 09:50:47;;;;;;;0.05;0.05;;;;;;;21.76;57.62;102347.47;5100161;28;20031;-81
2023/10/01 09:53:20;;;;;;;0.85;0.85;;;;;;;21.86;57.77;102350.63;5114759;28;20103;-83
2023/10/01 09:55:48;;;;;;;0.52;0.52;;;;;;;22.02;57.44;102340.03;5101769;28;20078;-81
2023/10/01 09:58:27;;;;;;;0.30;0.30;;;;;;;22.09;57.06;102342.41;5110387;28;20058;-81
2023/10/01 10:01:01;;;;;;;0.40;0.40;;;;;;;22.11;56.30;102343.19;5099491;28;20115;-80
2023/10/01 10:03:36;;;;;;;0.30;0.30;;;;;;;22.21;56.47;102335.56;5106651;28;20027;-81
2023/10/01 10:06:06;;;;;;;0.13;0.13;;;;;;;22.32;56.41;102340.50;5102599;28;20027;-80
2023/10/01 10:08:34;;;;;;;0.30;0.30;;;;;;;22.44;55.87;102328.25;5103396;28;20028;-81
2023/10/01 10:11:02;;;;;;;4.05;0.75;;;;;;;22.59;56.29;102330.25;5108816;28;20055;-80
2023/10/01 10:13:36;;;;;;;1.30;1.20;;;;;;;22.66;56.19;102322.72;5103145;28;20020;-81
2023/10/01 10:16:29;;;;;;;5.20;2.05;;;;;;;22.75;55.32;102325.00;5104738;28;20521;-81
2023/10/01 10:27:16;;;;;;;0.05;0.05;;;;;;;22.86;54.24;102315.50;5082463;28;20401;-80
2023/10/01 10:32:30;;;;;;;0.85;0.50;;;;;;;23.04;54.13;102313.69;5099652;27;20396;-80
2023/10/01 10:37:45;;;;;;;0.10;0.10;;;;;;;23.23;54.06;102309.16;5108917;27;20399;-81
2023/10/01 10:45:42;;;;;;;0.30;0.30;;;;;;;23.36;53.01;102305.84;5118412;27;20392;-80
2023/10/01 10:48:09;;;;;;;0.52;0.47;;;;;;;23.41;53.65;102307.38;5103623;28;20024;-83
2023/10/01 10:50:57;;;;;;;0.43;0.43;;;;;;;23.67;53.51;102320.50;5099156;27;20055;-79
2023/10/01 10:53:25;;;;;;;1.90;1.77;;;;;;;23.73;54.46;102310.22;5095624;28;20490;-80
2023/10/01 10:58:38;;;;;;;0.73;0.73;;;;;;;24.01;53.52;102302.50;5098212;27;20364;-81
2023/10/01 11:01:23;;;;;;;0.30;0.30;;;;;;;24.05;51.92;102304.06;5092217;28;20560;-80
2023/10/01 11:03:57;;;;;;;0.20;0.20;;;;;;;24.11;51.56;102300.16;5091777;28;20055;-81
2023/10/01 11:09:26;;;;;;;1.77;0.68;;;;;;;24.09;51.79;102308.38;5104956;27;20401;-80
2023/10/01 11:14:37;;;;;;;0.20;0.20;;;;;;;24.21;51.85;102305.00;5113267;27;20446;-81
2023/10/01 11:17:07;;;;;;;0.30;0.30;;;;;;;24.38;52.05;102295.06;5111736;28;20440;-81
2023/10/01 11:19:37;;;;;;;0.55;0.55;;;;;;;24.50;51.30;102305.22;5112981;28;20564;-79
2023/10/01 11:22:06;;;;;;;0.20;0.20;;;;;;;24.60;50.52;102301.97;5103109;28;20042;-79
2023/10/01 11:24:39;;;;;;;0.52;0.52;;;;;;;24.57;50.52;102294.88;5111417;28;20032;-80
2023/10/01 11:30:13;;;;;;;0.10;0.10;;;;;;;24.73;50.10;102285.94;5113996;27;20362;-79
2023/10/01 11:38:20;;;;;;;0.10;0.10;;;;;;;24.86;49.88;102287.84;5114843;27;20388;-81
2023/10/01 11:41:38;;;;;;;0.77;0.40;;;;;;;24.98;49.73;102296.22;5111334;28;20033;-80
2023/10/01 11:48:59;;;;;;;0.10;0.10;;;;;;;25.20;49.49;102280.44;5112866;27;20339;-80
2023/10/01 11:51:30;;;;;;;0.30;0.30;;;;;;;25.22;48.96;102284.91;5106852;28;20034;-81
2023/10/01 11:54:08;;;;;;;0.10;0.10;;;;;;;25.21;48.94;102281.34;5111102;28;20051;-81
2023/10/01 11:56:37;;;;;;;0.95;0.75;;;;;;;25.29;48.81;102272.72;5111384;28;20024;-80
2023/10/01 11:59:05;;;;;;;0.10;0.10;;;;;;;25.22;48.27;102265.91;5112314;28;20036;-81
2023/10/01 12:01:38;;;;;;;0.45;0.43;;;;;;;25.18;49.06;102267.94;5113247;28;20020;-80
2023/10/01 12:04:06;;;;;;;1.75;1.25;;;;;;;25.19;49.32;102267.84;5108008;28;20016;-82
2023/10/01 12:06:34;;;;;;;35.33;1.65;;;;;;;25.29;49.46;102259.16;5109216;28;20031;-81
2023/10/01 12:09:01;;;;;;;0.55;0.47;;;;;;;25.33;48.89;102263.44;5112169;28;20039;-78
2023/10/01 12:11:27;;;;;;;0.20;0.20;;;;;;;25.33;48.54;102260.72;5111566;28;20028;-79
2023/10/01 12:14:08;;;;;;;0.75;0.75;;;;;;;25.49;48.44;102260.69;5111891;28;20039;-80
2023/10/01 12:16:37;;;;;;;0.10;0.10;;;;;;;25.30;47.63;102258.22;5111374;28;20534;-80
2023/10/01 12:19:34;;;;;;;0.95;0.95;;;;;;;25.39;47.92;102257.66;5110001;28;20651;-80
2023/10/01 12:22:05;;;;;;;0.10;0.10;;;;;;;25.44;47.58;102255.53;5101983;28;20116;-80
2023/10/01 12:24:39;;;;;;;1.65;1.02;;;;;;;25.38;47.65;102258.63;5085738;28;20400;-78
2023/10/01 12:27:07;;;;;;;0.10;0.10;;;;;;;25.53;47.59;102254.09;5111643;28;20035;-81
2023/10/01 12:29:42;;;;;;;0.73;0.73;;;;;;;25.62;47.92;102249.94;5112639;28;20027;-81
2023/10/01 12:32:10;;;;;;;1.50;1.42;;;;;;;25.73;47.97;102241.16;5112598;28;20034;-80
2023/10/01 12:34:36;;;;;;;0.47;0.47;;;;;;;25.92;47.55;102238.16;5106139;28;20025;-79
2023/10/01 12:39:50;;;;;;;0.73;0.70;;;;;;;26.16;47.18;102242.03;5110943;28;20036;-80
2023/10/01 12:42:16;;;;;;;0.98;0.98;;;;;;;26.19;47.52;102229.25;5111321;28;20027;-79
2023/10/01 12:44:43;;;;;;;0.57;0.57;;;;;;;26.26;47.13;102234.19;5111040;28;20154;-80
2023/10/01 12:47:15;;;;;;;0.10;0.10;;;;;;;26.24;46.11;102237.97;5110761;28;20024;-80
2023/10/01 12:49:42;;;;;;;2.63;1.35;;;;;;;26.23;46.34;102228.97;5100431;28;20081;-81
2023/10/01 12:52:14;;;;;;;0.32;0.32;;;;;;;26.44;46.57;102226.69;5103319;28;20036;-79